Time;durP1;ratioP1;P1;durP2;ratioP2;P2;SDS_P1;SDS_P2;PMS_P1;PMS_P2;Temp;Humidity;BMP_temperature;BMP_pressure;BME280_temperature;BME280_humidity;BME280_pressure;Samples;Min_cycle;Max_cycle;Signal;HPM_P1;HPM_P2
2023/05/31 12:43:40;;;;;;;;;;;29.20;36.60;;;;;;5100367;27;20306;-96
2023/05/31 12:46:07;;;;;;;;;;;29.40;38.70;;;;;;5101160;28;19912;-96
2023/05/31 12:48:32;;;;;;;;;;;29.40;37.60;;;;;;5106244;28;19977;-96
2023/05/31 12:50:58;;;;;;;;;;;29.90;37.50;;;;;;5097822;28;19930;-96
2023/05/31 12:53:25;;;;;;;;;;;30.50;37.30;;;;;;5082234;28;20307;-96
2023/05/31 12:55:50;;;;;;;;;;;30.90;37.60;;;;;;5099954;28;19916;-96
2023/05/31 12:58:16;;;;;;;;;;;31.20;37.10;;;;;;5073595;28;19916;-96
2023/05/31 13:00:43;;;;;;;;;;;31.60;36.50;;;;;;5450124;23;19994;-96
2023/05/31 13:03:13;;;;;;;;;;;31.80;35.30;;;;;;5127160;28;19892;-96
2023/05/31 13:08:08;;;;;;;;;;;31.80;36.30;;;;;;5170318;22;20046;-96
2023/05/31 13:13:13;;;;;;;;;;;32.20;33.70;;;;;;5427774;23;19944;-96
2023/05/31 13:15:40;;;;;;;;;;;32.10;35.90;;;;;;5112493;23;19927;-95
2023/05/31 13:33:38;;;;;;;;;;;30.30;37.40;;;;;;5555958;22;19935;-96
2023/05/31 13:36:05;;;;;;;;;;;30.30;39.90;;;;;;5093551;28;19908;-96
2023/05/31 13:38:30;;;;;;;;;;;30.20;39.50;;;;;;5074578;28;19909;-96
2023/05/31 13:40:56;;;;;;;;;;;30.50;38.80;;;;;;5090399;28;20428;-96
2023/05/31 13:43:25;;;;;;;;;;;30.80;37.80;;;;;;5090194;28;19919;-96
2023/05/31 13:45:51;;;;;;;;;;;30.80;39.40;;;;;;5090977;28;19908;-96
2023/05/31 13:48:45;;;;;;;;;;;31.80;36.60;;;;;;5111964;27;20433;-96
2023/05/31 13:51:15;;;;;;;;;;;32.40;34.90;;;;;;5109988;28;20003;-96
2023/05/31 13:53:41;;;;;;;;;;;32.40;35.00;;;;;;5111628;28;19908;-96
2023/05/31 13:56:08;;;;;;;;;;;32.10;35.10;;;;;;5111681;28;19915;-96
2023/05/31 13:58:35;;;;;;;;;;;32.60;35.00;;;;;;5110041;28;19966;-96
2023/05/31 14:02:39;;;;;;;;;;;32.80;33.80;;;;;;5111500;27;19912;-96
2023/05/31 14:05:05;;;;;;;;;;;33.00;33.60;;;;;;5111854;28;19912;-96
2023/05/31 14:07:31;;;;;;;;;;;33.20;33.40;;;;;;5111560;28;19962;-96
2023/05/31 14:09:56;;;;;;;;;;;32.80;34.30;;;;;;5111676;28;20428;-96
2023/05/31 14:12:22;;;;;;;;;;;32.20;34.10;;;;;;5111432;28;20263;-96
2023/05/31 14:14:48;;;;;;;;;;;31.20;35.10;;;;;;5111553;28;19908;-96
2023/05/31 14:17:14;;;;;;;;;;;31.50;35.50;;;;;;5093231;28;19916;-96
2023/05/31 14:19:39;;;;;;;;;;;32.20;36.60;;;;;;5111776;28;19915;-96
2023/05/31 14:22:05;;;;;;;;;;;31.90;34.40;;;;;;5111119;28;19908;-96
2023/05/31 14:24:30;;;;;;;;;;;31.70;34.00;;;;;;5111375;28;19908;-96
2023/05/31 14:26:56;;;;;;;;;;;31.90;34.50;;;;;;5111221;28;19908;-96
2023/05/31 14:29:21;;;;;;;;;;;32.40;32.60;;;;;;5111132;28;19908;-96
2023/05/31 14:31:47;;;;;;;;;;;32.20;32.80;;;;;;5111027;28;19962;-96
2023/05/31 14:34:15;;;;;;;;;;;32.20;33.00;;;;;;5093002;28;19913;-96
2023/05/31 14:36:40;;;;;;;;;;;32.20;32.60;;;;;;5091310;28;19931;-96
2023/05/31 14:39:06;;;;;;;;;;;32.30;32.90;;;;;;5090709;28;20380;-96
2023/05/31 14:41:32;;;;;;;;;;;32.20;33.50;;;;;;5090745;28;20419;-96
2023/05/31 14:43:57;;;;;;;;;;;32.40;33.70;;;;;;5090411;28;20402;-96
2023/05/31 14:46:23;;;;;;;;;;;32.40;33.80;;;;;;5090527;28;20363;-96
2023/05/31 14:48:48;;;;;;;;;;;32.20;33.90;;;;;;5090718;28;20352;-96
2023/05/31 14:51:14;;;;;;;;;;;32.00;34.00;;;;;;5090262;28;19912;-96
2023/05/31 14:53:39;;;;;;;;;;;32.40;35.10;;;;;;5090673;28;19915;-96
2023/05/31 14:56:05;;;;;;;;;;;32.50;36.40;;;;;;5071991;28;20372;-96
2023/05/31 14:58:30;;;;;;;;;;;32.40;36.30;;;;;;5072057;28;19916;-96
2023/05/31 15:00:56;;;;;;;;;;;32.20;36.30;;;;;;5089798;28;19924;-96
2023/05/31 15:03:22;;;;;;;;;;;32.40;35.70;;;;;;5090155;28;19935;-96
2023/05/31 15:05:47;;;;;;;;;;;32.30;35.80;;;;;;5071880;28;19909;-96
2023/05/31 15:08:13;;;;;;;;;;;32.00;36.20;;;;;;5090241;28;20005;-96
2023/05/31 15:10:38;;;;;;;;;;;32.10;36.80;;;;;;5090256;28;19984;-96
2023/05/31 15:13:04;;;;;;;;;;;32.10;36.00;;;;;;5063030;28;19973;-96
2023/05/31 15:15:29;;;;;;;;;;;31.70;35.70;;;;;;5076209;28;19995;-96
2023/05/31 15:17:55;;;;;;;;;;;31.70;36.50;;;;;;5076527;28;20328;-96
2023/05/31 15:20:20;;;;;;;;;;;31.50;36.50;;;;;;5076116;28;19915;-96
2023/05/31 15:22:46;;;;;;;;;;;31.00;37.30;;;;;;5076233;28;19999;-96
2023/05/31 15:25:12;;;;;;;;;;;30.90;37.20;;;;;;5058239;28;19915;-96
2023/05/31 15:27:37;;;;;;;;;;;30.70;39.40;;;;;;5057973;28;19931;-96
2023/05/31 15:30:03;;;;;;;;;;;30.40;40.10;;;;;;5075930;28;19912;-96
2023/05/31 15:32:29;;;;;;;;;;;30.40;38.60;;;;;;5075665;28;19942;-96
2023/05/31 15:34:55;;;;;;;;;;;30.40;37.60;;;;;;5076452;28;19924;-96
2023/05/31 15:37:21;;;;;;;;;;;30.20;37.70;;;;;;5075818;28;19909;-96
2023/05/31 15:39:47;;;;;;;;;;;30.20;38.40;;;;;;5076300;28;19931;-96
2023/05/31 15:42:12;;;;;;;;;;;29.80;39.20;;;;;;5075814;28;20399;-96
2023/05/31 15:44:38;;;;;;;;;;;29.70;38.80;;;;;;5075890;28;19909;-96
2023/05/31 15:47:03;;;;;;;;;;;29.80;39.50;;;;;;5075655;28;19908;-96
2023/05/31 15:49:29;;;;;;;;;;;29.50;39.90;;;;;;5075982;28;19908;-96
2023/05/31 15:51:54;;;;;;;;;;;29.50;39.00;;;;;;5075704;28;19913;-96
2023/05/31 15:54:20;;;;;;;;;;;29.30;39.40;;;;;;5075770;28;19912;-96
2023/05/31 15:56:46;;;;;;;;;;;29.20;39.50;;;;;;5075519;28;19939;-96
2023/05/31 15:59:11;;;;;;;;;;;29.20;40.40;;;;;;5075498;28;19958;-96
2023/05/31 16:01:37;;;;;;;;;;;28.90;40.80;;;;;;5075415;28;20375;-96
2023/05/31 16:04:02;;;;;;;;;;;28.80;41.20;;;;;;5075509;28;19912;-96
2023/05/31 16:06:29;;;;;;;;;;;28.90;41.70;;;;;;5075542;28;19909;-96
2023/05/31 16:08:57;;;;;;;;;;;28.70;41.80;;;;;;5075423;28;19909;-96
2023/05/31 16:11:23;;;;;;;;;;;28.50;41.70;;;;;;5075237;28;19912;-96
2023/05/31 16:13:50;;;;;;;;;;;28.70;41.10;;;;;;5075241;28;20279;-96
2023/05/31 16:16:15;;;;;;;;;;;28.50;41.70;;;;;;5063476;28;19908;-96
2023/05/31 16:31:55;;;;;;;;;;;;;;;;;;;;;
2023/05/31 16:34:29;;;;;;;;;;;28.20;42.90;;;;;;5038385;28;19937;-97
2023/05/31 16:37:22;;;;;;;;;;;28.00;44.30;;;;;;5035203;28;19913;-96
2023/05/31 16:48:02;;;;;;;;;;;27.60;44.50;;;;;;5937209;23;19926;-96
2023/05/31 16:50:33;;;;;;;;;;;27.30;46.10;;;;;;5001135;28;19910;-96
2023/05/31 17:26:49;;;;;;;;;;;26.80;48.70;;;;;;5133626;23;19910;-96
2023/05/31 17:34:26;;;;;;;;;;;26.50;48.50;;;;;;5231303;23;19929;-96
2023/05/31 17:44:38;;;;;;;;;;;25.90;47.70;;;;;;6012781;23;19916;-96
2023/05/31 18:59:52;;;;;;;;;;;23.00;57.90;;;;;;5771102;23;19926;-96
2023/05/31 19:02:23;;;;;;;;;;;22.80;59.00;;;;;;4976391;28;19922;-96
2023/05/31 19:05:09;;;;;;;;;;;22.80;59.40;;;;;;4978702;28;19918;-96
2023/05/31 19:07:40;;;;;;;;;;;22.70;60.00;;;;;;4982615;28;19918;-96
2023/05/31 19:10:19;;;;;;;;;;;22.50;60.30;;;;;;4965884;29;19926;-96
2023/05/31 19:13:01;;;;;;;;;;;22.30;60.80;;;;;;4982957;29;19922;-96
2023/05/31 19:15:38;;;;;;;;;;;22.30;61.30;;;;;;4951682;29;19906;-96
2023/05/31 19:18:06;;;;;;;;;;;22.20;61.30;;;;;;4966058;29;19919;-96
2023/05/31 19:20:33;;;;;;;;;;;22.10;61.30;;;;;;4966034;29;19910;-96
2023/05/31 19:23:18;;;;;;;;;;;22.10;61.50;;;;;;4980558;29;19917;-97
2023/05/31 19:25:52;;;;;;;;;;;22.00;63.30;;;;;;4965391;29;19946;-96
2023/05/31 19:28:19;;;;;;;;;;;21.90;63.20;;;;;;4984518;23;19935;-96
2023/05/31 19:30:53;;;;;;;;;;;21.80;64.10;;;;;;4981486;29;19918;-96
2023/05/31 19:33:24;;;;;;;;;;;21.70;65.10;;;;;;4964734;29;19894;-96
2023/05/31 19:35:51;;;;;;;;;;;21.70;64.80;;;;;;4965415;29;19910;-96
2023/05/31 19:38:27;;;;;;;;;;;21.70;64.00;;;;;;4981452;29;19991;-96
2023/05/31 19:40:57;;;;;;;;;;;21.40;66.60;;;;;;4981869;28;19933;-96
2023/05/31 19:43:25;;;;;;;;;;;21.30;67.30;;;;;;4965354;29;19942;-96
2023/05/31 19:45:53;;;;;;;;;;;21.30;67.80;;;;;;4964792;29;19894;-96
2023/05/31 19:48:40;;;;;;;;;;;21.20;68.60;;;;;;4981258;29;19917;-96
2023/05/31 19:51:12;;;;;;;;;;;21.10;70.30;;;;;;4978573;29;19925;-96
2023/05/31 19:53:43;;;;;;;;;;;21.00;70.70;;;;;;4965542;29;19918;-96
2023/05/31 19:56:11;;;;;;;;;;;21.00;71.00;;;;;;4964172;29;19895;-96
2023/05/31 19:58:40;;;;;;;;;;;21.00;72.60;;;;;;4964391;29;19914;-96
2023/05/31 20:01:10;;;;;;;;;;;21.00;73.70;;;;;;4980376;29;19914;-96
2023/05/31 20:03:39;;;;;;;;;;;20.90;74.80;;;;;;4980195;28;19919;-96
2023/05/31 20:06:07;;;;;;;;;;;20.80;75.50;;;;;;4963801;29;19910;-96
2023/05/31 20:08:34;;;;;;;;;;;20.80;75.40;;;;;;4975371;29;19911;-96
2023/05/31 20:11:02;;;;;;;;;;;20.60;75.40;;;;;;4963846;29;19914;-96
2023/05/31 20:13:30;;;;;;;;;;;20.60;75.90;;;;;;4964014;29;19895;-96
2023/05/31 20:15:58;;;;;;;;;;;20.50;74.40;;;;;;4963884;29;19925;-96
2023/05/31 20:18:27;;;;;;;;;;;20.40;72.90;;;;;;4963733;29;19911;-96
2023/05/31 20:21:01;;;;;;;;;;;20.40;74.50;;;;;;4963705;29;19956;-96
2023/05/31 20:23:29;;;;;;;;;;;20.30;73.90;;;;;;4978653;29;19915;-96
2023/05/31 20:25:56;;;;;;;;;;;20.20;74.40;;;;;;4963547;29;19895;-96
2023/05/31 20:28:25;;;;;;;;;;;20.30;74.30;;;;;;4963064;29;19965;-96
2023/05/31 20:30:58;;;;;;;;;;;20.20;73.80;;;;;;4979619;29;19915;-96
2023/05/31 20:33:28;;;;;;;;;;;20.10;74.10;;;;;;4963055;29;19953;-96
2023/05/31 20:35:59;;;;;;;;;;;20.00;75.70;;;;;;4979769;29;19902;-96
2023/05/31 20:38:27;;;;;;;;;;;19.80;76.10;;;;;;4962847;29;19910;-96
2023/05/31 20:40:53;;;;;;;;;;;19.80;75.20;;;;;;4963154;29;19945;-96
2023/05/31 20:43:20;;;;;;;;;;;19.80;75.50;;;;;;4963177;29;19910;-96
2023/05/31 20:45:51;;;;;;;;;;;19.80;75.30;;;;;;4963104;29;19966;-96
2023/05/31 20:48:21;;;;;;;;;;;19.80;75.90;;;;;;4962846;29;19914;-96
2023/05/31 20:50:47;;;;;;;;;;;19.80;76.10;;;;;;4962516;29;19910;-96
2023/05/31 20:53:15;;;;;;;;;;;19.80;76.70;;;;;;4963442;29;19921;-96
2023/05/31 20:55:43;;;;;;;;;;;19.90;76.30;;;;;;4963535;29;19895;-96
2023/05/31 20:58:11;;;;;;;;;;;20.10;76.40;;;;;;4962777;29;19909;-96
2023/05/31 21:00:38;;;;;;;;;;;19.90;76.90;;;;;;4961412;29;19914;-96
2023/05/31 21:03:07;;;;;;;;;;;19.70;77.50;;;;;;4978306;29;19910;-97
2023/05/31 21:05:34;;;;;;;;;;;19.70;77.70;;;;;;4962276;29;19918;-96
2023/05/31 21:08:01;;;;;;;;;;;19.90;77.50;;;;;;4961990;29;19917;-96
2023/05/31 21:10:27;;;;;;;;;;;19.90;78.20;;;;;;4978489;28;19917;-96
2023/05/31 21:12:55;;;;;;;;;;;19.80;78.60;;;;;;4962211;29;19917;-96
2023/05/31 21:15:21;;;;;;;;;;;19.80;79.60;;;;;;4962063;29;19938;-96
2023/05/31 21:17:48;;;;;;;;;;;19.70;79.50;;;;;;4961987;29;19917;-96
2023/05/31 21:20:17;;;;;;;;;;;19.80;79.10;;;;;;4946267;29;19914;-96
2023/05/31 21:22:45;;;;;;;;;;;19.80;80.20;;;;;;4977985;29;19960;-96
2023/05/31 21:25:11;;;;;;;;;;;19.80;79.50;;;;;;4962183;29;19934;-96
2023/05/31 21:27:42;;;;;;;;;;;19.90;79.40;;;;;;4962234;28;19926;-96
2023/05/31 21:30:09;;;;;;;;;;;19.90;80.00;;;;;;4962160;29;19894;-96
2023/05/31 21:32:36;;;;;;;;;;;19.80;76.40;;;;;;4978726;28;19923;-96
2023/05/31 21:35:04;;;;;;;;;;;19.80;79.70;;;;;;4962420;29;19894;-96
2023/05/31 21:37:33;;;;;;;;;;;19.80;80.00;;;;;;4960358;29;20398;-96
2023/05/31 21:40:01;;;;;;;;;;;19.90;80.50;;;;;;4977286;29;19910;-96
2023/05/31 21:42:27;;;;;;;;;;;20.00;75.50;;;;;;4961890;29;19913;-96
2023/05/31 21:44:54;;;;;;;;;;;20.20;76.90;;;;;;4979001;29;19902;-96
2023/05/31 21:47:22;;;;;;;;;;;20.30;77.10;;;;;;4979305;29;19918;-96
2023/05/31 21:49:49;;;;;;;;;;;20.20;78.20;;;;;;4961802;29;19915;-96
2023/05/31 21:52:20;;;;;;;;;;;20.20;77.40;;;;;;4978779;29;19899;-96
2023/05/31 21:54:47;;;;;;;;;;;20.30;74.10;;;;;;4961624;29;19911;-96
2023/05/31 21:57:15;;;;;;;;;;;20.30;72.40;;;;;;4961977;29;19910;-96
2023/05/31 21:59:43;;;;;;;;;;;20.50;75.60;;;;;;4979064;29;19934;-96
2023/05/31 22:02:24;;;;;;;;;;;20.60;77.20;;;;;;4962646;29;19918;-96
2023/05/31 22:04:52;;;;;;;;;;;20.60;73.20;;;;;;4961920;29;19918;-96
2023/05/31 22:07:21;;;;;;;;;;;20.60;71.80;;;;;;4978576;29;19950;-96
2023/05/31 22:09:49;;;;;;;;;;;20.60;73.70;;;;;;4962216;29;19914;-96
2023/05/31 22:12:17;;;;;;;;;;;20.60;71.40;;;;;;4961803;29;19946;-96
2023/05/31 22:14:44;;;;;;;;;;;20.70;71.70;;;;;;4978997;29;19913;-96
2023/05/31 22:17:11;;;;;;;;;;;20.70;72.80;;;;;;4962319;29;19936;-96
2023/05/31 22:19:43;;;;;;;;;;;20.80;71.30;;;;;;4978502;28;19934;-97
2023/05/31 22:22:11;;;;;;;;;;;20.70;69.80;;;;;;4961979;29;19910;-96
2023/05/31 22:24:37;;;;;;;;;;;20.60;69.60;;;;;;4965551;29;19915;-96
2023/05/31 22:27:06;;;;;;;;;;;20.60;69.60;;;;;;4964997;29;19895;-96
2023/05/31 22:29:33;;;;;;;;;;;20.60;69.80;;;;;;4980275;29;20327;-96
2023/05/31 22:32:00;;;;;;;;;;;20.50;70.10;;;;;;4964901;29;19918;-96
2023/05/31 22:34:27;;;;;;;;;;;20.50;70.00;;;;;;4964903;29;19970;-96
2023/05/31 22:36:53;;;;;;;;;;;20.60;72.00;;;;;;4965176;29;19911;-96
2023/05/31 22:39:20;;;;;;;;;;;20.50;70.30;;;;;;4965174;29;20318;-96
2023/05/31 22:41:48;;;;;;;;;;;20.50;73.90;;;;;;4964738;29;19910;-97
2023/05/31 22:44:16;;;;;;;;;;;20.30;74.30;;;;;;4965001;29;19982;-96
2023/05/31 22:46:43;;;;;;;;;;;20.10;74.50;;;;;;4979562;29;19902;-96
2023/05/31 22:49:10;;;;;;;;;;;20.10;73.10;;;;;;4980472;29;19918;-96
2023/05/31 22:51:42;;;;;;;;;;;20.20;69.70;;;;;;4964669;29;19905;-96
2023/05/31 22:54:08;;;;;;;;;;;20.30;69.20;;;;;;4965265;29;19906;-96
2023/05/31 22:56:35;;;;;;;;;;;20.30;70.10;;;;;;4964315;29;19910;-96
2023/05/31 22:59:05;;;;;;;;;;;20.30;68.90;;;;;;4981791;29;19911;-96
2023/05/31 23:01:31;;;;;;;;;;;20.30;71.50;;;;;;4963746;29;19911;-96
2023/05/31 23:04:00;;;;;;;;;;;20.10;72.00;;;;;;4964011;29;19914;-96
2023/05/31 23:06:34;;;;;;;;;;;20.00;72.40;;;;;;4980881;29;19911;-96
2023/05/31 23:09:01;;;;;;;;;;;19.80;73.30;;;;;;4963241;29;19917;-96
2023/05/31 23:11:30;;;;;;;;;;;19.70;73.10;;;;;;4963535;29;19921;-96
2023/05/31 23:13:59;;;;;;;;;;;19.70;72.80;;;;;;4963282;29;19926;-96
2023/05/31 23:16:28;;;;;;;;;;;19.60;72.30;;;;;;4979577;29;19910;-96
2023/05/31 23:18:56;;;;;;;;;;;19.70;72.70;;;;;;4963119;29;19906;-96
2023/05/31 23:21:25;;;;;;;;;;;19.60;72.20;;;;;;4962945;29;20009;-96
2023/05/31 23:23:50;;;;;;;;;;;19.60;72.50;;;;;;4963000;29;19918;-96
2023/05/31 23:26:23;;;;;;;;;;;19.50;73.30;;;;;;4979476;29;19921;-96
2023/05/31 23:28:50;;;;;;;;;;;19.30;73.50;;;;;;4979397;28;19925;-96
2023/05/31 23:31:16;;;;;;;;;;;19.30;72.70;;;;;;4979061;29;19925;-96
2023/05/31 23:33:42;;;;;;;;;;;19.20;73.20;;;;;;4962018;29;19911;-96
2023/05/31 23:36:08;;;;;;;;;;;19.20;73.60;;;;;;4962394;29;19910;-96
2023/05/31 23:38:40;;;;;;;;;;;19.30;74.40;;;;;;4962799;29;19907;-96
2023/05/31 23:41:07;;;;;;;;;;;19.40;73.50;;;;;;4963320;29;19910;-97
2023/05/31 23:43:34;;;;;;;;;;;19.50;72.40;;;;;;4980002;29;19917;-96
2023/05/31 23:46:00;;;;;;;;;;;19.50;73.80;;;;;;4962481;29;19917;-96
2023/05/31 23:48:26;;;;;;;;;;;19.30;74.70;;;;;;4962325;29;19895;-96
2023/05/31 23:50:54;;;;;;;;;;;19.20;76.00;;;;;;4962256;29;19914;-96
2023/05/31 23:53:20;;;;;;;;;;;19.10;76.50;;;;;;4978403;29;19966;-96
2023/05/31 23:55:47;;;;;;;;;;;19.00;76.50;;;;;;4961387;29;19910;-96
2023/05/31 23:58:14;;;;;;;;;;;18.90;76.80;;;;;;4961277;29;19910;-96
